Terminal Aerodrome Forecast
Issued by NWS

Home | Current Version | Previous Version | Text Only | Print | Product List | Glossary On
Versions: 1 2 3 4 5 6 7 8 9 10 11 12 13 14 15 16 17 18 19 20 21 22
000
FTUS41 KPHI 161300 AAA
TAFPNE
TAF AMD
KPNE 161316Z 1613/1712 34004KT 6SM HZ OVC007
      TEMPO 1615/1616 P6SM NSW SCT007 BKN015
     FM161600 35010KT P6SM SCT040
      TEMPO 1616/1618 BKN040
     FM170000 36003KT P6SM SKC=

USA.gov is the U.S. government's official web portal to all federal, state and local government web resources and services.